Time;durP1;ratioP1;P1;durP2;ratioP2;P2;SDS_P1;SDS_P2;PMS_P1;PMS_P2;Temp;Humidity;BMP_temperature;BMP_pressure;BME280_temperature;BME280_humidity;BME280_pressure;Samples;Min_cycle;Max_cycle;Signal;HPM_P1;HPM_P2
2021/10/11 00:00:00;;;;;;;8.70;7.80;;;9.10;33.70;;;;;;10451264;28;20221;-73
2021/10/11 00:05:04;;;;;;;7.00;6.40;;;9.10;34.00;;;;;;10454634;28;20917;-73
2021/10/11 00:10:08;;;;;;;7.60;6.87;;;9.20;33.90;;;;;;10455434;28;20319;-73
2021/10/11 00:15:13;;;;;;;8.43;7.13;;;9.10;34.00;;;;;;10450340;28;20229;-73
2021/10/11 00:20:16;;;;;;;8.40;6.97;;;9.10;34.00;;;;;;10453943;28;20228;-73
2021/10/11 00:25:19;;;;;;;7.60;6.90;;;9.10;33.90;;;;;;10456892;28;20233;-73
2021/10/11 00:30:24;;;;;;;7.77;6.97;;;9.10;33.90;;;;;;10445124;28;20674;-73
2021/10/11 00:35:27;;;;;;;8.80;7.60;;;9.10;34.00;;;;;;10446529;28;20233;-73
2021/10/11 00:40:31;;;;;;;8.97;7.83;;;9.00;33.90;;;;;;10453689;28;20226;-73
2021/10/11 00:45:36;;;;;;;8.10;7.30;;;9.00;33.70;;;;;;10449818;28;20235;-73
2021/10/11 00:50:39;;;;;;;9.13;6.90;;;8.90;33.90;;;;;;10459053;28;20225;-73
2021/10/11 00:55:43;;;;;;;7.27;6.57;;;8.80;33.60;;;;;;10463722;28;20232;-73
2021/10/11 01:00:48;;;;;;;7.67;6.87;;;8.70;33.70;;;;;;10456918;28;20772;-73
2021/10/11 01:05:52;;;;;;;8.63;7.73;;;8.60;33.90;;;;;;10455034;28;21000;-73
2021/10/11 01:10:57;;;;;;;7.60;6.80;;;8.60;33.70;;;;;;10440635;28;20240;-73
2021/10/11 01:16:02;;;;;;;9.07;7.70;;;8.50;33.70;;;;;;10451944;28;20224;-73
2021/10/11 01:21:06;;;;;;;8.40;7.60;;;8.50;33.90;;;;;;10449988;28;20212;-73
2021/10/11 01:26:10;;;;;;;8.07;7.37;;;8.40;33.50;;;;;;10456401;28;20233;-75
2021/10/11 01:31:13;;;;;;;7.97;6.83;;;8.40;33.90;;;;;;10453756;28;20233;-73
2021/10/11 01:36:17;;;;;;;6.30;5.70;;;8.30;33.90;;;;;;10436435;28;20240;-73
2021/10/11 01:41:20;;;;;;;6.60;6.00;;;8.30;34.10;;;;;;10452670;28;20225;-73
2021/10/11 01:46:24;;;;;;;6.70;6.00;;;8.30;34.00;;;;;;10445970;28;20233;-73
2021/10/11 01:51:28;;;;;;;7.53;6.77;;;8.30;34.10;;;;;;10451882;28;20295;-73
2021/10/11 01:56:31;;;;;;;6.57;5.97;;;8.30;34.10;;;;;;10458831;28;20703;-73
2021/10/11 02:01:34;;;;;;;7.70;6.83;;;8.20;33.90;;;;;;10442141;28;20224;-73
2021/10/11 02:06:39;;;;;;;6.80;6.10;;;8.20;34.00;;;;;;10446429;28;20224;-72
2021/10/11 02:11:42;;;;;;;6.30;5.70;;;8.20;34.20;;;;;;10446281;28;20629;-73
2021/10/11 02:16:46;;;;;;;8.20;7.23;;;8.10;33.90;;;;;;10454217;28;20224;-72
2021/10/11 02:21:51;;;;;;;6.97;5.47;;;8.10;34.10;;;;;;10462437;28;20236;-72
2021/10/11 02:26:54;;;;;;;6.43;5.77;;;8.10;34.20;;;;;;10463699;28;20244;-72
2021/10/11 02:31:57;;;;;;;7.00;6.30;;;8.00;34.00;;;;;;10454342;28;20229;-72
2021/10/11 02:37:02;;;;;;;8.00;7.20;;;8.00;34.10;;;;;;10451832;28;20224;-73
2021/10/11 02:42:05;;;;;;;7.63;5.80;;;8.00;34.30;;;;;;10453358;28;20215;-73
2021/10/11 02:47:08;;;;;;;6.33;5.73;;;8.00;34.10;;;;;;10445898;28;20225;-73
2021/10/11 02:52:13;;;;;;;7.73;7.03;;;8.00;34.10;;;;;;10456610;28;20229;-74
2021/10/11 02:57:16;;;;;;;6.70;6.10;;;8.00;34.30;;;;;;10454431;28;20247;-73
2021/10/11 03:02:19;;;;;;;6.73;6.03;;;7.90;34.00;;;;;;10445213;28;20606;-72
2021/10/11 03:07:24;;;;;;;7.80;7.00;;;7.90;34.10;;;;;;10448550;28;20734;-72
2021/10/11 03:12:27;;;;;;;6.53;5.87;;;7.90;34.20;;;;;;10451843;28;20323;-73
2021/10/11 03:17:30;;;;;;;7.47;6.67;;;7.90;34.10;;;;;;10448881;28;20315;-73
2021/10/11 03:22:34;;;;;;;6.47;5.87;;;7.80;34.20;;;;;;10454597;28;20227;-73
2021/10/11 03:27:38;;;;;;;8.13;7.10;;;7.80;34.40;;;;;;10445865;28;20229;-73
2021/10/11 03:32:41;;;;;;;7.47;6.77;;;7.60;34.10;;;;;;10442477;28;20709;-73
2021/10/11 03:37:45;;;;;;;7.50;6.70;;;7.80;34.20;;;;;;10448073;28;20913;-72
2021/10/11 03:42:49;;;;;;;6.57;5.97;;;7.70;34.40;;;;;;10453303;28;20221;-73
2021/10/11 03:47:52;;;;;;;7.53;6.47;;;7.60;34.20;;;;;;10451067;28;20232;-73
2021/10/11 03:52:56;;;;;;;6.77;6.10;;;7.60;34.40;;;;;;10446137;28;20608;-73
2021/10/11 03:58:00;;;;;;;7.43;6.33;;;7.60;34.70;;;;;;10461575;28;20233;-72
2021/10/11 04:03:04;;;;;;;7.73;6.40;;;7.50;34.40;;;;;;10456477;28;20214;-73
2021/10/11 04:08:12;;;;;;;8.80;7.63;;;7.50;34.50;;;;;;10456859;28;20222;-72
2021/10/11 04:13:20;;;;;;;9.20;8.23;;;7.50;34.70;;;;;;10459811;28;20237;-72
2021/10/11 04:18:23;;;;;;;7.57;6.87;;;7.50;34.40;;;;;;10455650;28;20681;-72
2021/10/11 04:23:28;;;;;;;9.90;7.67;;;7.40;34.40;;;;;;10450711;28;20586;-73
2021/10/11 04:28:31;;;;;;;9.87;7.60;;;7.40;34.70;;;;;;10439090;28;20230;-73
2021/10/11 04:33:34;;;;;;;10.00;7.17;;;7.30;34.60;;;;;;10448531;28;20238;-73
2021/10/11 04:38:39;;;;;;;8.77;7.97;;;7.30;34.70;;;;;;10443339;28;20228;-73
2021/10/11 04:43:42;;;;;;;9.60;8.33;;;7.20;35.00;;;;;;10443923;28;20226;-72
2021/10/11 04:48:45;;;;;;;8.63;6.97;;;7.20;34.80;;;;;;10452526;28;20237;-73
2021/10/11 04:53:49;;;;;;;9.87;8.83;;;7.20;34.80;;;;;;10447211;28;20235;-72
2021/10/11 04:58:53;;;;;;;13.30;8.57;;;7.20;35.10;;;;;;10455301;28;20229;-73
2021/10/11 05:03:56;;;;;;;8.60;7.70;;;7.10;35.00;;;;;;10445314;28;20358;-73
2021/10/11 05:09:01;;;;;;;14.07;10.23;;;7.10;35.00;;;;;;10445827;28;20709;-72
2021/10/11 05:14:04;;;;;;;10.47;9.37;;;7.10;36.40;;;;;;10445415;28;20240;-73
2021/10/11 05:19:09;;;;;;;7.93;7.13;;;7.20;35.80;;;;;;10452783;28;20239;-73
2021/10/11 05:24:14;;;;;;;10.27;8.57;;;7.20;35.40;;;;;;10448729;28;20244;-73
2021/10/11 05:29:17;;;;;;;10.67;9.57;;;7.20;35.60;;;;;;10445792;28;20228;-73
2021/10/11 05:34:21;;;;;;;9.53;8.57;;;7.20;35.10;;;;;;10446537;28;20620;-73
2021/10/11 05:39:25;;;;;;;10.80;9.70;;;7.20;35.10;;;;;;10448034;28;20225;-73
2021/10/11 05:44:28;;;;;;;14.80;12.23;;;7.10;35.20;;;;;;10446033;28;20235;-73
2021/10/11 05:49:32;;;;;;;14.80;12.10;;;7.10;34.90;;;;;;10442005;28;20225;-73
2021/10/11 05:54:36;;;;;;;22.43;17.60;;;7.00;35.00;;;;;;10451420;28;20220;-73
2021/10/11 05:59:40;;;;;;;13.27;11.87;;;6.90;35.40;;;;;;10452697;28;20224;-73
2021/10/11 06:04:43;;;;;;;12.70;11.30;;;6.90;35.30;;;;;;10447246;28;20735;-73
2021/10/11 06:09:47;;;;;;;13.17;11.13;;;6.80;35.40;;;;;;10443678;28;20688;-73
2021/10/11 06:14:52;;;;;;;13.70;11.87;;;6.80;35.80;;;;;;10440943;28;20238;-73
2021/10/11 06:19:55;;;;;;;12.53;11.33;;;6.70;35.70;;;;;;10448570;28;21236;-73
2021/10/11 06:25:00;;;;;;;10.97;9.87;;;6.60;35.90;;;;;;10445053;28;20237;-74
2021/10/11 06:30:03;;;;;;;11.73;10.40;;;6.60;36.50;;;;;;10448652;28;20217;-73
2021/10/11 06:35:07;;;;;;;11.17;10.07;;;6.60;36.50;;;;;;10435197;28;20252;-73
2021/10/11 06:40:12;;;;;;;14.30;9.77;;;6.70;36.90;;;;;;10440632;28;20228;-73
2021/10/11 06:45:33;;;;;;;12.03;10.83;;;6.70;37.20;;;;;;10435943;28;20247;-73
2021/10/11 06:50:36;;;;;;;11.77;10.43;;;6.80;37.20;;;;;;10442808;28;20231;-73
2021/10/11 06:55:41;;;;;;;11.17;10.07;;;6.90;37.30;;;;;;10430254;28;20233;-74
2021/10/11 07:00:44;;;;;;;13.07;11.60;;;7.00;37.80;;;;;;10430110;28;20225;-74
2021/10/11 07:05:47;;;;;;;13.03;10.87;;;7.10;37.60;;;;;;10429163;28;20228;-74
2021/10/11 07:10:54;;;;;;;12.93;11.63;;;7.20;37.90;;;;;;10433165;28;20995;-74
2021/10/11 07:15:58;;;;;;;15.10;13.60;;;7.30;38.60;;;;;;10427182;28;20599;-75
2021/10/11 07:21:01;;;;;;;13.90;12.43;;;7.40;38.60;;;;;;10436902;28;20267;-74
2021/10/11 07:26:07;;;;;;;14.80;13.30;;;7.50;39.50;;;;;;10433320;28;20214;-73
2021/10/11 07:31:10;;;;;;;13.87;12.47;;;7.70;39.00;;;;;;10430862;28;20248;-73
2021/10/11 07:36:14;;;;;;;16.77;14.43;;;7.80;39.10;;;;;;10441960;28;20644;-73
2021/10/11 07:41:19;;;;;;;16.53;14.83;;;8.00;39.30;;;;;;10444205;28;20235;-73
2021/10/11 07:46:22;;;;;;;15.93;14.33;;;8.10;39.30;;;;;;10436578;28;20260;-73
2021/10/11 07:51:26;;;;;;;16.53;14.80;;;8.30;39.00;;;;;;10433792;28;20228;-71
2021/10/11 07:56:30;;;;;;;21.23;18.77;;;8.30;39.10;;;;;;10434810;28;20923;-73
2021/10/11 08:01:35;;;;;;;19.17;17.10;;;8.40;39.60;;;;;;10437206;28;20226;-73
2021/10/11 08:06:39;;;;;;;18.60;16.70;;;8.50;39.20;;;;;;10436935;28;20654;-74
2021/10/11 08:11:43;;;;;;;19.00;17.03;;;8.50;39.50;;;;;;10429683;28;20227;-74
2021/10/11 08:16:47;;;;;;;19.77;17.87;;;8.60;39.70;;;;;;10447703;28;20689;-76
2021/10/11 08:21:50;;;;;;;20.23;17.17;;;8.70;39.80;;;;;;10434186;28;20228;-74
2021/10/11 08:26:55;;;;;;;18.40;16.50;;;8.80;39.90;;;;;;10455777;28;20231;-75
2021/10/11 08:31:58;;;;;;;19.00;17.00;;;8.90;40.00;;;;;;10443900;28;20317;-75
2021/10/11 08:37:05;;;;;;;18.77;16.87;;;9.20;40.20;;;;;;10456269;28;20727;-76
2021/10/11 08:42:11;;;;;;;19.33;17.33;;;9.50;40.40;;;;;;10444310;28;20252;-76
2021/10/11 08:47:16;;;;;;;18.40;16.60;;;9.80;40.70;;;;;;10463431;28;20223;-76
2021/10/11 08:52:22;;;;;;;19.40;17.50;;;10.10;39.80;;;;;;10466969;28;20733;-74
2021/10/11 08:57:28;;;;;;;22.10;19.83;;;10.40;39.80;;;;;;10493277;28;20720;-74
2021/10/11 09:02:32;;;;;;;20.93;18.80;;;10.70;39.70;;;;;;10447253;28;20249;-74
2021/10/11 09:07:35;;;;;;;19.73;17.67;;;11.00;39.30;;;;;;10453308;28;20655;-75
2021/10/11 09:12:47;;;;;;;20.63;18.53;;;11.30;39.20;;;;;;10448862;28;20228;-76
2021/10/11 09:17:54;;;;;;;20.73;18.60;;;11.60;39.70;;;;;;10451497;28;20240;-75
2021/10/11 09:23:00;;;;;;;20.30;18.20;;;11.90;39.10;;;;;;10439922;28;20233;-77
2021/10/11 09:28:07;;;;;;;20.83;16.67;;;12.10;39.10;;;;;;10441051;28;20244;-75
2021/10/11 09:33:14;;;;;;;19.93;17.90;;;12.40;38.90;;;;;;10444690;28;20247;-75
2021/10/11 09:38:19;;;;;;;19.43;16.97;;;12.50;38.80;;;;;;10442561;28;20233;-76
2021/10/11 09:43:25;;;;;;;18.23;16.33;;;12.70;38.70;;;;;;10437654;28;20225;-75
2021/10/11 09:48:28;;;;;;;21.37;19.17;;;13.00;38.90;;;;;;10447008;28;20718;-75
2021/10/11 09:53:34;;;;;;;19.03;16.83;;;13.20;38.10;;;;;;10438454;28;20229;-76
2021/10/11 09:58:41;;;;;;;18.77;16.80;;;13.40;37.90;;;;;;10444364;28;20594;-74
2021/10/11 10:03:44;;;;;;;18.50;16.60;;;13.50;38.30;;;;;;10443227;28;20232;-74
2021/10/11 10:08:50;;;;;;;18.60;16.67;;;13.70;38.00;;;;;;10449804;28;20593;-74
2021/10/11 10:13:55;;;;;;;17.90;16.07;;;13.90;37.60;;;;;;10430646;28;20244;-74
2021/10/11 10:19:10;;;;;;;17.50;15.70;;;14.00;37.40;;;;;;10436817;28;20629;-76
2021/10/11 10:24:23;;;;;;;16.83;14.87;;;14.20;37.60;;;;;;10443520;28;20307;-74
2021/10/11 10:29:27;;;;;;;15.77;14.20;;;14.30;37.70;;;;;;10436874;28;20231;-75
2021/10/11 10:34:32;;;;;;;16.70;14.03;;;14.50;36.70;;;;;;10454472;28;20250;-74
2021/10/11 10:39:39;;;;;;;14.73;13.33;;;14.60;36.60;;;;;;10448679;28;20661;-74
2021/10/11 10:44:46;;;;;;;15.63;13.77;;;14.70;36.30;;;;;;10440244;28;20647;-74
2021/10/11 10:49:49;;;;;;;14.53;13.00;;;14.90;36.60;;;;;;10426362;28;20223;-73
2021/10/11 10:54:55;;;;;;;15.70;12.60;;;15.00;36.30;;;;;;10436951;28;20229;-76
2021/10/11 11:00:02;;;;;;;13.27;11.97;;;15.20;36.00;;;;;;10428315;28;20239;-74
2021/10/11 11:05:07;;;;;;;13.30;11.80;;;15.30;35.00;;;;;;10436459;28;20764;-74
2021/10/11 11:10:12;;;;;;;14.03;12.73;;;15.40;35.60;;;;;;10434050;28;20221;-73
2021/10/11 11:15:28;;;;;;;13.97;11.97;;;15.60;35.10;;;;;;10434903;28;20237;-72
2021/10/11 11:20:34;;;;;;;12.70;11.40;;;15.70;34.60;;;;;;10431445;28;20573;-73
2021/10/11 11:25:39;;;;;;;13.77;10.53;;;15.70;34.80;;;;;;10432314;28;20993;-74
2021/10/11 11:30:45;;;;;;;12.17;10.87;;;15.80;35.20;;;;;;10429986;28;20229;-75
2021/10/11 11:35:50;;;;;;;11.07;9.97;;;15.80;33.60;;;;;;10433090;28;20225;-76
2021/10/11 11:40:56;;;;;;;10.30;9.30;;;15.90;34.00;;;;;;10439339;28;20231;-75
2021/10/11 11:46:02;;;;;;;10.37;9.30;;;16.00;33.40;;;;;;10433856;28;20231;-75
2021/10/11 11:51:08;;;;;;;9.50;8.60;;;16.10;33.10;;;;;;10435398;28;20271;-76
2021/10/11 11:56:13;;;;;;;11.60;9.13;;;16.20;33.50;;;;;;10441531;28;20220;-75
2021/10/11 12:01:27;;;;;;;9.03;8.13;;;16.30;33.30;;;;;;10440143;28;20223;-75
2021/10/11 12:06:32;;;;;;;11.73;9.17;;;16.40;32.20;;;;;;10439101;28;20256;-75
2021/10/11 12:11:36;;;;;;;9.23;8.30;;;16.30;32.50;;;;;;10433239;28;20225;-77
2021/10/11 12:16:41;;;;;;;11.60;10.40;;;16.40;33.20;;;;;;10425282;28;20784;-77
2021/10/11 12:21:53;;;;;;;9.43;8.53;;;16.40;32.00;;;;;;10427465;28;20216;-77
2021/10/11 12:26:59;;;;;;;10.83;9.73;;;16.40;31.70;;;;;;10426339;28;20229;-76
2021/10/11 12:32:06;;;;;;;10.57;9.57;;;16.40;32.30;;;;;;10425133;28;20747;-75
2021/10/11 12:37:12;;;;;;;9.43;8.53;;;16.40;31.70;;;;;;10434047;28;20245;-77
2021/10/11 12:42:17;;;;;;;10.50;8.77;;;16.40;32.10;;;;;;10427804;28;20231;-77
2021/10/11 12:47:26;;;;;;;9.73;8.30;;;16.40;32.30;;;;;;10431334;28;20225;-77
2021/10/11 12:52:34;;;;;;;7.80;7.10;;;16.40;31.60;;;;;;10440289;28;20288;-77
2021/10/11 12:57:37;;;;;;;8.13;7.33;;;16.40;30.80;;;;;;10433256;28;20236;-78
2021/10/11 13:02:42;;;;;;;11.27;7.73;;;16.50;31.30;;;;;;10426483;28;20838;-78
2021/10/11 13:07:45;;;;;;;8.40;7.70;;;16.50;30.80;;;;;;10417058;28;20239;-77
2021/10/11 13:12:49;;;;;;;9.23;7.53;;;16.50;31.70;;;;;;10427169;28;20767;-78
2021/10/11 13:17:55;;;;;;;8.60;7.73;;;16.60;31.90;;;;;;10430286;28;20233;-76
2021/10/11 13:22:59;;;;;;;9.10;8.20;;;16.60;30.50;;;;;;10426126;28;20229;-76
2021/10/11 13:28:02;;;;;;;9.23;8.23;;;16.70;31.40;;;;;;10419811;28;20240;-78
2021/10/11 14:32:58;;;;;;;8.93;8.03;;;16.90;30.90;;;;;;10443454;28;20612;-76
2021/10/11 15:58:46;;;;;;;8.03;7.23;;;16.90;30.80;;;;;;10418272;28;20715;-78
2021/10/11 16:03:52;;;;;;;7.43;6.73;;;16.90;31.40;;;;;;10460344;28;20228;-76
2021/10/11 16:08:56;;;;;;;12.10;7.83;;;16.90;31.40;;;;;;10443425;28;20327;-79
2021/10/11 16:14:00;;;;;;;8.80;7.60;;;16.80;32.00;;;;;;10433267;28;20308;-79
2021/10/11 16:19:05;;;;;;;7.30;6.60;;;16.80;30.80;;;;;;10440666;28;20574;-79
2021/10/11 16:24:08;;;;;;;7.73;6.93;;;16.70;30.90;;;;;;10442330;28;20227;-79
2021/10/11 16:29:13;;;;;;;7.77;6.57;;;16.70;31.10;;;;;;10435645;28;20225;-79
2021/10/11 16:34:21;;;;;;;7.30;6.57;;;16.50;30.50;;;;;;10441239;28;20255;-78
2021/10/11 16:39:24;;;;;;;7.60;6.80;;;16.40;30.80;;;;;;10440293;28;20450;-78
2021/10/11 16:44:29;;;;;;;7.00;6.40;;;16.30;30.90;;;;;;10441341;28;20240;-79
2021/10/11 16:49:32;;;;;;;9.67;8.53;;;16.20;30.90;;;;;;10448954;28;20224;-78
2021/10/11 16:54:35;;;;;;;8.97;8.17;;;16.10;30.80;;;;;;10448860;28;20233;-79
2021/10/11 16:59:40;;;;;;;7.17;6.47;;;16.10;30.80;;;;;;10440815;28;20583;-82
2021/10/11 17:04:43;;;;;;;8.23;7.43;;;16.10;30.80;;;;;;10454977;28;20229;-78
2021/10/11 17:09:46;;;;;;;13.90;12.17;;;16.00;30.90;;;;;;10447456;28;20212;-79
2021/10/11 17:14:51;;;;;;;8.57;7.57;;;16.00;30.90;;;;;;10437547;28;20231;-79
2021/10/11 17:19:54;;;;;;;9.47;8.47;;;16.00;31.30;;;;;;10437857;28;20216;-79
2021/10/11 17:24:57;;;;;;;9.67;7.80;;;15.90;31.40;;;;;;10448240;28;20229;-79
2021/10/11 17:30:02;;;;;;;8.50;7.70;;;15.80;31.40;;;;;;10452161;28;20843;-79
2021/10/11 17:35:06;;;;;;;8.33;7.53;;;15.70;31.20;;;;;;10452329;28;20209;-79
2021/10/11 17:40:11;;;;;;;9.33;8.40;;;15.70;31.30;;;;;;10445317;28;20769;-78
2021/10/11 17:45:15;;;;;;;9.60;8.27;;;15.60;31.20;;;;;;10442924;28;20236;-78
2021/10/11 17:50:20;;;;;;;8.07;7.27;;;15.60;31.50;;;;;;10441276;28;20229;-79
2021/10/11 17:55:35;;;;;;;9.87;8.87;;;15.50;31.50;;;;;;10440855;28;20232;-78
2021/10/11 18:00:40;;;;;;;11.33;8.97;;;15.50;31.30;;;;;;10440823;28;20235;-79
2021/10/11 18:05:43;;;;;;;9.67;8.67;;;15.40;31.50;;;;;;10438602;28;20940;-78
2021/10/11 18:10:47;;;;;;;11.07;9.90;;;15.40;31.60;;;;;;10436655;28;20232;-77
2021/10/11 18:15:52;;;;;;;12.97;10.07;;;15.30;31.60;;;;;;10442090;28;20229;-80
2021/10/11 18:20:55;;;;;;;12.53;11.23;;;15.30;31.70;;;;;;10442134;28;20308;-77
2021/10/11 18:26:03;;;;;;;14.13;12.73;;;15.30;31.80;;;;;;10440634;28;20901;-79
2021/10/11 18:31:21;;;;;;;12.83;11.33;;;15.20;31.70;;;;;;10434456;28;20224;-77
2021/10/11 18:36:26;;;;;;;12.13;10.93;;;15.10;32.00;;;;;;10438390;28;20228;-78
2021/10/11 18:41:30;;;;;;;13.67;12.17;;;15.00;32.10;;;;;;10442010;28;20308;-76
2021/10/11 18:46:35;;;;;;;13.63;12.33;;;15.00;32.10;;;;;;10430626;28;20232;-76
2021/10/11 18:51:38;;;;;;;14.93;13.33;;;14.90;32.00;;;;;;10440700;28;20282;-77
2021/10/11 18:56:42;;;;;;;13.83;12.20;;;14.80;31.90;;;;;;10441415;28;20236;-77
2021/10/11 19:01:47;;;;;;;15.40;13.87;;;14.80;31.90;;;;;;10445267;28;20225;-76
2021/10/11 19:06:52;;;;;;;16.27;14.23;;;14.70;32.40;;;;;;10443515;28;20282;-76
2021/10/11 19:11:55;;;;;;;17.10;15.30;;;14.70;32.50;;;;;;10443172;28;20212;-76
2021/10/11 19:17:00;;;;;;;17.73;15.93;;;14.70;32.80;;;;;;10445258;28;20239;-76
2021/10/11 19:22:04;;;;;;;17.80;15.93;;;14.60;34.30;;;;;;10437444;28;20718;-76
2021/10/11 19:27:08;;;;;;;17.50;15.70;;;14.60;33.30;;;;;;10440064;28;20908;-76
2021/10/11 19:32:12;;;;;;;19.47;15.80;;;14.60;33.50;;;;;;10435539;28;20231;-75
2021/10/11 19:37:16;;;;;;;18.67;16.40;;;14.60;34.20;;;;;;10440143;28;20356;-76
2021/10/11 19:42:19;;;;;;;18.07;15.73;;;14.60;34.60;;;;;;10440330;28;20220;-76
2021/10/11 19:47:23;;;;;;;17.20;15.47;;;14.60;34.80;;;;;;10441779;28;20282;-76
2021/10/11 19:52:27;;;;;;;16.93;15.10;;;14.50;35.80;;;;;;10448259;28;20244;-76
2021/10/11 19:57:30;;;;;;;15.50;13.83;;;14.50;36.00;;;;;;10441685;28;20272;-76
2021/10/11 20:02:37;;;;;;;18.00;14.20;;;14.30;35.90;;;;;;10442312;28;20221;-75
2021/10/11 20:07:41;;;;;;;18.07;14.60;;;14.30;37.00;;;;;;10442852;28;20272;-76
2021/10/11 20:12:44;;;;;;;15.87;14.27;;;14.30;36.30;;;;;;10440625;28;20251;-75
2021/10/11 20:17:49;;;;;;;17.40;14.67;;;14.30;36.20;;;;;;10447508;28;20278;-75
2021/10/11 20:22:52;;;;;;;17.07;13.83;;;14.30;36.70;;;;;;10440345;28;20221;-74
2021/10/11 20:27:55;;;;;;;17.67;14.50;;;14.30;36.20;;;;;;10433951;28;20902;-75
2021/10/11 20:33:00;;;;;;;14.13;12.63;;;14.30;36.60;;;;;;10439830;28;20230;-74
2021/10/11 20:38:03;;;;;;;14.73;13.27;;;14.30;36.90;;;;;;10439203;28;20303;-74
2021/10/11 20:43:07;;;;;;;14.90;13.30;;;14.30;36.60;;;;;;10448239;28;20221;-74
2021/10/11 20:48:12;;;;;;;14.53;13.00;;;14.30;36.60;;;;;;10443309;28;20237;-74
2021/10/11 20:53:15;;;;;;;13.57;12.23;;;14.30;37.20;;;;;;10442004;28;20235;-74
2021/10/11 20:58:19;;;;;;;13.40;11.33;;;14.30;36.80;;;;;;10443583;28;20885;-75
2021/10/11 21:03:25;;;;;;;12.63;10.90;;;14.30;36.90;;;;;;10447074;28;20239;-74
2021/10/11 21:08:28;;;;;;;11.90;9.87;;;14.20;37.00;;;;;;10449469;28;20603;-74
2021/10/11 21:13:32;;;;;;;11.90;10.23;;;14.20;36.70;;;;;;10454162;28;20225;-74
2021/10/11 21:18:36;;;;;;;11.87;10.53;;;14.20;36.80;;;;;;10458612;28;20258;-74
2021/10/11 21:23:40;;;;;;;11.50;9.90;;;14.30;37.40;;;;;;10453790;28;20224;-74
2021/10/11 21:28:43;;;;;;;11.23;10.03;;;14.30;36.80;;;;;;10448405;28;20244;-74
2021/10/11 21:33:47;;;;;;;11.00;9.83;;;14.30;36.90;;;;;;10451419;28;20235;-74
2021/10/11 21:38:51;;;;;;;11.40;9.47;;;14.30;37.70;;;;;;10444647;28;20236;-73
2021/10/11 21:43:54;;;;;;;11.70;9.53;;;14.20;37.00;;;;;;10440044;28;20731;-74
2021/10/11 21:48:59;;;;;;;9.80;8.67;;;14.10;37.20;;;;;;10447149;28;20239;-73
2021/10/11 21:54:02;;;;;;;8.77;7.93;;;14.10;37.50;;;;;;10443465;28;20217;-73
2021/10/11 21:59:05;;;;;;;10.13;9.00;;;14.10;37.20;;;;;;10449805;28;20299;-74
2021/10/11 22:04:10;;;;;;;10.27;9.27;;;14.10;37.40;;;;;;10450855;28;20524;-74
2021/10/11 22:09:13;;;;;;;9.53;8.60;;;14.10;37.70;;;;;;10454319;28;20221;-74
2021/10/11 22:14:16;;;;;;;9.57;8.63;;;14.10;37.30;;;;;;10444768;28;20232;-74
2021/10/11 22:19:21;;;;;;;8.60;7.57;;;14.10;37.30;;;;;;10448873;28;20932;-73
2021/10/11 22:24:25;;;;;;;8.43;7.60;;;14.10;37.50;;;;;;10446620;28;20259;-74
2021/10/11 22:29:28;;;;;;;9.30;7.60;;;14.00;37.30;;;;;;10440410;28;20225;-74
2021/10/11 22:34:33;;;;;;;8.87;6.50;;;14.00;37.30;;;;;;10438783;28;20702;-74
2021/10/11 22:39:36;;;;;;;7.70;5.97;;;13.80;37.90;;;;;;10439727;28;20235;-73
2021/10/11 22:44:39;;;;;;;6.10;5.50;;;13.70;37.40;;;;;;10444450;28;20229;-73
2021/10/11 22:49:44;;;;;;;6.40;5.80;;;13.60;37.50;;;;;;10444797;28;20224;-74
2021/10/11 22:54:48;;;;;;;6.63;5.93;;;13.60;37.90;;;;;;10444595;28;20263;-73
2021/10/11 22:59:51;;;;;;;7.87;5.80;;;13.60;37.80;;;;;;10451546;28;20664;-74
2021/10/11 23:04:55;;;;;;;7.23;5.80;;;13.50;37.70;;;;;;10453206;28;20623;-74
2021/10/11 23:09:58;;;;;;;7.27;5.80;;;13.50;38.10;;;;;;10448213;28;20637;-73
2021/10/11 23:15:02;;;;;;;7.00;5.97;;;13.40;37.70;;;;;;10448411;28;20351;-73
2021/10/11 23:20:10;;;;;;;6.40;5.80;;;13.30;37.90;;;;;;10450889;28;20233;-74
2021/10/11 23:25:15;;;;;;;7.67;5.70;;;13.20;38.70;;;;;;10442331;28;20258;-73
2021/10/11 23:30:18;;;;;;;5.93;5.23;;;13.20;38.10;;;;;;10438576;28;20212;-73
2021/10/11 23:35:22;;;;;;;6.77;5.43;;;13.10;37.90;;;;;;10450095;28;20233;-73
2021/10/11 23:40:26;;;;;;;5.87;5.27;;;13.10;38.40;;;;;;10451463;28;20700;-73
2021/10/11 23:45:29;;;;;;;6.50;5.23;;;13.10;38.10;;;;;;10445836;28;20253;-74
2021/10/11 23:50:33;;;;;;;5.87;4.90;;;13.10;38.00;;;;;;10448095;28;20220;-73
2021/10/11 23:55:36;;;;;;;7.33;5.30;;;13.00;38.30;;;;;;10457322;28;20232;-73
